Time;durP1;ratioP1;P1;durP2;ratioP2;P2;SDS_P1;SDS_P2;PMS_P1;PMS_P2;Temp;Humidity;BMP_temperature;BMP_pressure;BME280_temperature;BME280_humidity;BME280_pressure;Samples;Min_cycle;Max_cycle;Signal;HPM_P1;HPM_P2
2022/06/11 00:00:40;;;;;;;;;;;28.00;44.00;;;;;;5099016;28;1914;-48
2022/06/11 00:03:06;;;;;;;;;;;27.90;44.00;;;;;;5099073;28;1833;-46
2022/06/11 00:05:33;;;;;;;;;;;27.90;44.10;;;;;;5098700;28;1003;-49
2022/06/11 00:08:00;;;;;;;;;;;27.90;44.20;;;;;;5096983;28;1003;-46
2022/06/11 00:10:27;;;;;;;;;;;27.90;44.10;;;;;;5098668;28;972;-46
2022/06/11 00:12:54;;;;;;;;;;;28.00;44.00;;;;;;5099005;28;940;-47
2022/06/11 00:15:20;;;;;;;;;;;27.90;44.20;;;;;;5099028;28;1026;-48
2022/06/11 00:17:48;;;;;;;;;;;27.90;44.30;;;;;;5098547;28;1154;-49
2022/06/11 00:20:15;;;;;;;;;;;27.90;44.30;;;;;;5098056;28;1905;-47
2022/06/11 00:22:42;;;;;;;;;;;27.90;44.40;;;;;;5098516;28;983;-47
2022/06/11 00:25:09;;;;;;;;;;;27.80;44.40;;;;;;5099090;28;983;-50
2022/06/11 00:27:36;;;;;;;;;;;27.80;44.40;;;;;;5100098;28;975;-49
2022/06/11 00:30:03;;;;;;;;;;;27.90;44.50;;;;;;5099746;28;1021;-47
2022/06/11 00:32:30;;;;;;;;;;;27.90;44.30;;;;;;5099831;28;932;-47
2022/06/11 00:35:02;;;;;;;;;;;27.90;44.30;;;;;;5099532;28;1128;-47
2022/06/11 00:37:29;;;;;;;;;;;27.90;45.40;;;;;;5099984;28;964;-48
2022/06/11 00:39:56;;;;;;;;;;;27.90;44.30;;;;;;5099573;28;1086;-46
2022/06/11 00:42:24;;;;;;;;;;;27.90;44.30;;;;;;5098570;28;1906;-48
2022/06/11 00:45:05;;;;;;;;;;;27.90;44.40;;;;;;5098801;28;1127;-46
2022/06/11 00:47:34;;;;;;;;;;;27.90;44.40;;;;;;5099079;28;1633;-46
2022/06/11 00:50:03;;;;;;;;;;;27.90;44.30;;;;;;5098905;28;1027;-46
2022/06/11 00:52:32;;;;;;;;;;;27.90;44.40;;;;;;5099375;28;945;-46
2022/06/11 00:55:01;;;;;;;;;;;27.90;44.40;;;;;;5098942;28;1122;-46
2022/06/11 00:57:29;;;;;;;;;;;27.90;44.30;;;;;;5098929;28;947;-46
2022/06/11 00:59:58;;;;;;;;;;;28.00;44.40;;;;;;5098608;28;1109;-47
2022/06/11 01:02:24;;;;;;;;;;;27.90;44.30;;;;;;5098630;28;1985;-46
2022/06/11 01:04:53;;;;;;;;;;;27.90;44.20;;;;;;5099098;28;996;-47
2022/06/11 01:07:31;;;;;;;;;;;27.90;44.30;;;;;;5098063;28;968;-48
2022/06/11 01:10:05;;;;;;;;;;;27.90;44.30;;;;;;5096630;28;1135;-49
2022/06/11 01:12:34;;;;;;;;;;;28.10;44.20;;;;;;5098781;28;941;-47
2022/06/11 01:15:05;;;;;;;;;;;28.10;44.20;;;;;;5098782;28;1051;-46
2022/06/11 01:17:35;;;;;;;;;;;28.10;44.10;;;;;;5097892;28;1043;-48
2022/06/11 01:20:16;;;;;;;;;;;28.10;43.90;;;;;;5097912;28;985;-46
2022/06/11 01:22:58;;;;;;;;;;;28.10;43.90;;;;;;5098183;28;1922;-47
2022/06/11 01:25:32;;;;;;;;;;;28.10;43.90;;;;;;5096820;28;1107;-48
2022/06/11 01:28:06;;;;;;;;;;;28.10;43.90;;;;;;5098225;28;944;-46
2022/06/11 01:30:37;;;;;;;;;;;28.20;44.00;;;;;;5098951;28;987;-48
2022/06/11 01:33:11;;;;;;;;;;;28.10;44.20;;;;;;5097600;28;876;-47
2022/06/11 01:35:41;;;;;;;;;;;28.00;44.00;;;;;;5097365;28;936;-48
2022/06/11 01:38:15;;;;;;;;;;;28.10;44.10;;;;;;5098094;28;872;-47
2022/06/11 01:40:45;;;;;;;;;;;28.10;44.10;;;;;;5098001;28;1982;-47
2022/06/11 01:43:15;;;;;;;;;;;28.10;44.00;;;;;;5097942;28;997;-49
2022/06/11 01:45:43;;;;;;;;;;;28.10;44.40;;;;;;5097448;28;952;-46
2022/06/11 01:48:13;;;;;;;;;;;28.20;44.00;;;;;;5097453;28;1055;-48
2022/06/11 01:50:41;;;;;;;;;;;28.20;43.90;;;;;;5098922;28;1002;-48
2022/06/11 01:53:25;;;;;;;;;;;28.10;44.00;;;;;;5096304;28;973;-48
2022/06/11 01:56:00;;;;;;;;;;;28.10;44.10;;;;;;5096758;28;961;-47
2022/06/11 01:58:33;;;;;;;;;;;28.10;44.10;;;;;;5095930;28;1326;-47
2022/06/11 02:01:06;;;;;;;;;;;28.10;44.00;;;;;;5096412;28;1906;-45
2022/06/11 02:03:36;;;;;;;;;;;28.10;44.10;;;;;;5097056;28;976;-46
2022/06/11 02:06:07;;;;;;;;;;;28.10;44.20;;;;;;5096051;28;1000;-47
2022/06/11 02:08:53;;;;;;;;;;;28.10;44.10;;;;;;5095169;28;928;-46
2022/06/11 02:11:26;;;;;;;;;;;28.10;44.20;;;;;;5095924;28;1075;-47
2022/06/11 02:14:02;;;;;;;;;;;28.00;44.20;;;;;;5098452;28;925;-46
2022/06/11 02:16:33;;;;;;;;;;;28.00;44.20;;;;;;5096277;28;1000;-47
2022/06/11 02:19:01;;;;;;;;;;;28.00;44.40;;;;;;5096632;28;1019;-46
2022/06/11 02:21:30;;;;;;;;;;;28.00;44.40;;;;;;5096294;28;1906;-46
2022/06/11 02:24:03;;;;;;;;;;;27.90;44.40;;;;;;5096448;28;995;-47
2022/06/11 02:26:31;;;;;;;;;;;27.90;44.50;;;;;;5096764;28;1022;-47
2022/06/11 02:28:59;;;;;;;;;;;28.00;44.50;;;;;;5096691;28;1000;-47
2022/06/11 02:31:28;;;;;;;;;;;27.90;44.50;;;;;;5096955;28;1015;-47
2022/06/11 02:33:57;;;;;;;;;;;27.90;44.50;;;;;;5096996;28;1063;-47
2022/06/11 02:36:27;;;;;;;;;;;27.90;44.50;;;;;;5097377;28;996;-47
2022/06/11 02:38:55;;;;;;;;;;;27.90;44.50;;;;;;5097440;28;995;-46
2022/06/11 02:41:23;;;;;;;;;;;27.90;44.60;;;;;;5097546;28;1977;-46
2022/06/11 02:43:50;;;;;;;;;;;27.90;44.60;;;;;;5096742;28;928;-46
2022/06/11 02:49:04;;;;;;;;;;;27.90;44.60;;;;;;5097159;28;667;-47
2022/06/11 02:51:31;;;;;;;;;;;27.90;44.70;;;;;;5097129;28;1026;-47
2022/06/11 02:53:58;;;;;;;;;;;27.90;44.50;;;;;;5097361;28;1004;-48
2022/06/11 02:56:25;;;;;;;;;;;27.90;44.70;;;;;;5096789;28;948;-46
2022/06/11 02:58:52;;;;;;;;;;;27.90;44.50;;;;;;5096942;28;1007;-47
2022/06/11 03:01:20;;;;;;;;;;;27.90;44.70;;;;;;5096775;28;1898;-47
2022/06/11 03:03:49;;;;;;;;;;;27.90;44.70;;;;;;5096818;28;976;-47
2022/06/11 03:06:17;;;;;;;;;;;27.90;44.70;;;;;;5096686;28;1005;-45
2022/06/11 03:08:44;;;;;;;;;;;27.90;44.70;;;;;;5096509;28;944;-47
2022/06/11 03:11:10;;;;;;;;;;;27.90;44.70;;;;;;5099748;28;1152;-46
2022/06/11 03:13:37;;;;;;;;;;;27.90;44.80;;;;;;5099688;28;924;-48
2022/06/11 03:16:04;;;;;;;;;;;27.90;44.80;;;;;;5099536;28;1434;-48
2022/06/11 03:18:31;;;;;;;;;;;27.90;44.90;;;;;;5099898;28;953;-47
2022/06/11 03:20:58;;;;;;;;;;;27.90;44.70;;;;;;5099653;28;964;-47
2022/06/11 03:23:26;;;;;;;;;;;27.90;44.70;;;;;;5099973;28;1902;-45
2022/06/11 03:25:54;;;;;;;;;;;27.90;44.80;;;;;;5099808;28;888;-47
2022/06/11 03:28:23;;;;;;;;;;;27.80;44.80;;;;;;5098972;28;936;-49
2022/06/11 03:30:50;;;;;;;;;;;27.90;44.90;;;;;;5099969;28;987;-46
2022/06/11 03:33:17;;;;;;;;;;;27.90;44.80;;;;;;5099518;28;1007;-47
2022/06/11 03:35:44;;;;;;;;;;;27.90;44.90;;;;;;5099411;28;968;-47
2022/06/11 03:38:11;;;;;;;;;;;27.80;44.80;;;;;;5099233;28;940;-46
2022/06/11 03:40:39;;;;;;;;;;;27.80;44.90;;;;;;5098846;28;981;-47
2022/06/11 03:43:07;;;;;;;;;;;27.80;44.90;;;;;;5099044;28;1902;-48
2022/06/11 03:45:34;;;;;;;;;;;27.80;45.00;;;;;;5099514;28;995;-48
2022/06/11 03:48:00;;;;;;;;;;;27.80;44.90;;;;;;5098891;28;988;-45
2022/06/11 03:50:30;;;;;;;;;;;27.80;45.00;;;;;;5099173;28;996;-48
2022/06/11 03:52:56;;;;;;;;;;;27.80;44.90;;;;;;5098800;28;972;-47
2022/06/11 03:55:24;;;;;;;;;;;27.80;45.00;;;;;;5099804;28;1011;-46
2022/06/11 03:57:52;;;;;;;;;;;27.80;44.90;;;;;;5098318;28;1030;-47
2022/06/11 04:01:14;;;;;;;;;;;27.80;45.00;;;;;;5098702;28;1028;-48
2022/06/11 04:03:09;;;;;;;;;;;27.80;44.90;;;;;;5098236;28;1906;-47
2022/06/11 04:05:36;;;;;;;;;;;27.80;45.00;;;;;;5098244;28;1010;-45
2022/06/11 04:08:03;;;;;;;;;;;27.80;45.00;;;;;;5096794;28;912;-48
2022/06/11 04:10:31;;;;;;;;;;;27.80;45.00;;;;;;5098422;28;1021;-46
2022/06/11 04:12:59;;;;;;;;;;;27.80;45.00;;;;;;5098759;28;1031;-45
2022/06/11 04:15:26;;;;;;;;;;;27.80;45.00;;;;;;5098901;28;928;-47
2022/06/11 04:17:53;;;;;;;;;;;27.80;45.00;;;;;;5098077;28;1252;-46
2022/06/11 04:20:20;;;;;;;;;;;27.80;45.10;;;;;;5099040;28;981;-46
2022/06/11 04:22:47;;;;;;;;;;;27.80;45.10;;;;;;5097628;28;1981;-48
2022/06/11 04:25:14;;;;;;;;;;;27.80;45.10;;;;;;5097724;28;967;-47
2022/06/11 04:27:41;;;;;;;;;;;27.70;45.10;;;;;;5099173;28;976;-45
2022/06/11 04:30:11;;;;;;;;;;;27.80;45.10;;;;;;5098871;28;1036;-49
2022/06/11 04:32:39;;;;;;;;;;;27.80;45.10;;;;;;5098836;28;1007;-50
2022/06/11 04:35:06;;;;;;;;;;;27.80;45.10;;;;;;5099020;28;999;-47
2022/06/11 04:37:33;;;;;;;;;;;27.80;45.10;;;;;;5099204;28;964;-45
2022/06/11 04:40:00;;;;;;;;;;;27.80;45.10;;;;;;5098387;28;1757;-46
2022/06/11 04:42:28;;;;;;;;;;;27.80;45.10;;;;;;5098869;28;1906;-48
2022/06/11 04:44:55;;;;;;;;;;;27.80;45.10;;;;;;5099507;28;1020;-46
2022/06/11 04:47:24;;;;;;;;;;;27.80;45.10;;;;;;5099831;28;1020;-45
2022/06/11 04:49:53;;;;;;;;;;;27.80;45.10;;;;;;5099533;28;960;-47
2022/06/11 04:52:20;;;;;;;;;;;27.80;45.20;;;;;;5098440;28;992;-46
2022/06/11 04:54:47;;;;;;;;;;;27.80;45.20;;;;;;5098771;28;1038;-46
2022/06/11 04:57:14;;;;;;;;;;;27.80;45.10;;;;;;5098812;28;936;-48
2022/06/11 04:59:41;;;;;;;;;;;27.80;45.20;;;;;;5096775;28;992;-47
2022/06/11 05:02:08;;;;;;;;;;;27.90;45.00;;;;;;5096690;28;1985;-46
2022/06/11 05:04:37;;;;;;;;;;;27.90;44.90;;;;;;5097446;28;900;-46
2022/06/11 05:07:05;;;;;;;;;;;27.90;44.90;;;;;;5097160;28;1141;-46
2022/06/11 05:09:33;;;;;;;;;;;27.90;45.00;;;;;;5097168;28;916;-46
2022/06/11 05:12:00;;;;;;;;;;;27.90;44.90;;;;;;5097327;28;1027;-48
2022/06/11 05:14:27;;;;;;;;;;;27.90;44.90;;;;;;5097127;28;868;-48
2022/06/11 05:16:56;;;;;;;;;;;28.00;44.80;;;;;;5096377;28;1114;-47
2022/06/11 05:19:23;;;;;;;;;;;27.90;44.80;;;;;;5096976;28;989;-47
2022/06/11 05:21:51;;;;;;;;;;;27.90;44.90;;;;;;5096513;28;1898;-46
2022/06/11 05:24:19;;;;;;;;;;;28.00;44.90;;;;;;5096792;28;1007;-46
2022/06/11 05:26:49;;;;;;;;;;;27.90;44.80;;;;;;5096670;28;979;-47
2022/06/11 05:29:20;;;;;;;;;;;28.00;44.70;;;;;;5097265;28;1008;-47
2022/06/11 05:31:47;;;;;;;;;;;28.00;44.80;;;;;;5095728;28;1887;-49
2022/06/11 05:34:14;;;;;;;;;;;28.10;44.60;;;;;;5097137;28;991;-45
2022/06/11 05:36:41;;;;;;;;;;;28.10;44.60;;;;;;5096934;28;1019;-45
2022/06/11 05:39:09;;;;;;;;;;;28.00;44.70;;;;;;5096319;28;972;-48
2022/06/11 05:41:36;;;;;;;;;;;28.00;44.60;;;;;;5096162;28;1036;-49
2022/06/11 05:44:02;;;;;;;;;;;28.00;44.70;;;;;;5096100;28;1901;-47
2022/06/11 05:46:31;;;;;;;;;;;28.00;44.60;;;;;;5096871;28;960;-49
2022/06/11 05:49:00;;;;;;;;;;;28.10;44.60;;;;;;5096234;28;1001;-47
2022/06/11 05:51:28;;;;;;;;;;;28.00;44.70;;;;;;5096818;28;936;-47
2022/06/11 05:53:56;;;;;;;;;;;28.00;44.70;;;;;;5097311;28;931;-47
2022/06/11 05:56:24;;;;;;;;;;;28.00;44.70;;;;;;5097056;28;1058;-47
2022/06/11 05:58:55;;;;;;;;;;;28.00;44.70;;;;;;5095131;28;967;-47
2022/06/11 06:01:24;;;;;;;;;;;28.00;44.70;;;;;;5095985;28;1441;-48
2022/06/11 06:03:51;;;;;;;;;;;28.00;44.60;;;;;;5095161;28;1895;-46
2022/06/11 06:06:17;;;;;;;;;;;28.00;44.70;;;;;;5095720;28;972;-47
2022/06/11 06:08:45;;;;;;;;;;;28.00;44.70;;;;;;5095416;28;1011;-49
2022/06/11 06:11:12;;;;;;;;;;;28.00;44.60;;;;;;5095224;28;967;-48
2022/06/11 06:13:49;;;;;;;;;;;28.10;44.60;;;;;;5096099;28;892;-48
2022/06/11 06:16:15;;;;;;;;;;;28.00;44.60;;;;;;5096421;28;1067;-49
2022/06/11 06:18:42;;;;;;;;;;;28.00;44.80;;;;;;5096232;28;1031;-48
2022/06/11 06:21:09;;;;;;;;;;;28.00;44.50;;;;;;5095974;28;919;-47
2022/06/11 06:23:36;;;;;;;;;;;28.00;44.60;;;;;;5095537;28;1998;-47
2022/06/11 06:26:03;;;;;;;;;;;28.10;44.60;;;;;;5095853;28;1011;-34
2022/06/11 06:28:31;;;;;;;;;;;28.00;44.50;;;;;;5095481;28;1195;-35
2022/06/11 06:31:00;;;;;;;;;;;28.00;44.60;;;;;;5095537;28;1000;-35
2022/06/11 06:33:26;;;;;;;;;;;27.90;44.80;;;;;;5095578;28;995;-35
2022/06/11 06:35:53;;;;;;;;;;;28.00;44.80;;;;;;5095411;28;1011;-35
2022/06/11 06:38:20;;;;;;;;;;;28.00;44.70;;;;;;5094594;28;940;-34
2022/06/11 06:40:47;;;;;;;;;;;28.00;44.90;;;;;;5095302;28;924;-37
2022/06/11 06:43:13;;;;;;;;;;;28.00;44.90;;;;;;5094001;28;1917;-37
2022/06/11 06:45:40;;;;;;;;;;;28.00;45.00;;;;;;5094013;28;927;-36
2022/06/11 06:48:08;;;;;;;;;;;27.90;45.00;;;;;;5095082;28;924;-37
2022/06/11 06:50:35;;;;;;;;;;;27.90;45.10;;;;;;5095791;28;1011;-34
2022/06/11 06:53:02;;;;;;;;;;;28.00;45.40;;;;;;5094392;28;1009;-39
2022/06/11 06:55:28;;;;;;;;;;;28.10;45.40;;;;;;5094397;28;1001;-36
2022/06/11 06:57:55;;;;;;;;;;;28.00;45.00;;;;;;5093482;28;1861;-36
2022/06/11 07:00:22;;;;;;;;;;;28.00;45.30;;;;;;5094549;28;971;-39
2022/06/11 07:02:49;;;;;;;;;;;28.00;45.40;;;;;;5094173;28;1901;-36
2022/06/11 07:05:17;;;;;;;;;;;28.00;45.40;;;;;;5094464;28;999;-36
2022/06/11 07:07:47;;;;;;;;;;;28.10;45.10;;;;;;5093643;28;968;-39
2022/06/11 07:10:14;;;;;;;;;;;28.00;45.00;;;;;;5094629;28;1030;-36
2022/06/11 07:12:41;;;;;;;;;;;28.10;45.20;;;;;;5094871;28;1014;-37
2022/06/11 07:15:08;;;;;;;;;;;28.00;45.30;;;;;;5096608;28;1348;-38
2022/06/11 07:17:36;;;;;;;;;;;28.00;45.40;;;;;;5095437;28;1404;-36
2022/06/11 07:20:05;;;;;;;;;;;28.10;45.40;;;;;;5094388;28;1034;-36
2022/06/11 07:22:36;;;;;;;;;;;28.00;45.00;;;;;;5094342;28;1980;-37
2022/06/11 07:25:05;;;;;;;;;;;28.00;45.20;;;;;;5094012;28;1076;-36
2022/06/11 07:27:33;;;;;;;;;;;28.00;45.30;;;;;;5093940;28;892;-36
2022/06/11 07:30:03;;;;;;;;;;;28.00;45.40;;;;;;5093715;28;1006;-37
2022/06/11 07:32:35;;;;;;;;;;;28.00;45.40;;;;;;5093492;28;951;-37
2022/06/11 07:35:01;;;;;;;;;;;28.00;45.20;;;;;;5092779;28;924;-36
2022/06/11 07:37:28;;;;;;;;;;;28.00;45.30;;;;;;5093641;28;864;-37
2022/06/11 07:39:56;;;;;;;;;;;28.00;45.20;;;;;;5093218;28;980;-37
2022/06/11 07:42:23;;;;;;;;;;;28.00;45.30;;;;;;5093570;28;1043;-37
2022/06/11 07:44:49;;;;;;;;;;;28.00;45.20;;;;;;5094755;28;1909;-37
2022/06/11 07:47:53;;;;;;;;;;;28.10;45.30;;;;;;5093552;28;988;-37
2022/06/11 07:50:03;;;;;;;;;;;28.00;45.30;;;;;;5093765;28;1765;-37
2022/06/11 07:52:30;;;;;;;;;;;28.00;45.40;;;;;;5092947;28;969;-37
2022/06/11 07:54:58;;;;;;;;;;;28.00;45.40;;;;;;5095355;28;1030;-37
2022/06/11 07:57:25;;;;;;;;;;;28.00;45.40;;;;;;5096859;28;936;-37
2022/06/11 07:59:52;;;;;;;;;;;28.00;45.20;;;;;;5094898;28;968;-39
2022/06/11 08:02:19;;;;;;;;;;;28.00;45.20;;;;;;5096206;28;996;-37
2022/06/11 08:04:46;;;;;;;;;;;28.10;45.40;;;;;;5099138;28;1960;-37
2022/06/11 08:07:12;;;;;;;;;;;28.00;45.30;;;;;;5098426;28;1000;-36
2022/06/11 08:09:39;;;;;;;;;;;28.10;45.40;;;;;;5098671;28;939;-36
2022/06/11 08:12:08;;;;;;;;;;;28.10;45.30;;;;;;5097556;28;968;-36
2022/06/11 08:14:34;;;;;;;;;;;28.00;45.20;;;;;;5098359;28;1043;-37
2022/06/11 08:17:01;;;;;;;;;;;28.00;45.40;;;;;;5098720;28;1084;-36
2022/06/11 08:19:28;;;;;;;;;;;28.00;45.40;;;;;;5099572;28;995;-38
2022/06/11 08:21:56;;;;;;;;;;;28.10;45.40;;;;;;5099221;28;1461;-38
2022/06/11 08:24:23;;;;;;;;;;;28.10;45.50;;;;;;5099773;28;1917;-37
2022/06/11 08:26:49;;;;;;;;;;;28.00;45.40;;;;;;5099057;28;983;-37
2022/06/11 08:29:18;;;;;;;;;;;28.00;45.40;;;;;;5098166;28;1028;-37
2022/06/11 08:31:45;;;;;;;;;;;28.10;45.40;;;;;;5096350;28;998;-37
2022/06/11 08:34:12;;;;;;;;;;;28.10;46.50;;;;;;5095899;28;947;-37
2022/06/11 08:36:38;;;;;;;;;;;28.10;45.40;;;;;;5096402;28;885;-37
2022/06/11 08:39:05;;;;;;;;;;;28.10;45.30;;;;;;5094666;28;1001;-36
2022/06/11 08:41:35;;;;;;;;;;;28.10;45.30;;;;;;5094708;28;929;-36
2022/06/11 08:44:03;;;;;;;;;;;28.10;45.40;;;;;;5095783;28;1917;-36
2022/06/11 08:46:35;;;;;;;;;;;28.10;45.20;;;;;;5096051;28;983;-36
2022/06/11 08:49:10;;;;;;;;;;;28.10;45.20;;;;;;5094896;28;973;-38
2022/06/11 08:51:41;;;;;;;;;;;28.10;45.30;;;;;;5095376;28;1443;-37
2022/06/11 08:54:09;;;;;;;;;;;28.10;45.30;;;;;;5096217;28;1000;-37
2022/06/11 08:56:39;;;;;;;;;;;28.10;45.20;;;;;;5095995;28;1015;-38
2022/06/11 08:59:14;;;;;;;;;;;28.10;45.30;;;;;;5096100;28;968;-37
2022/06/11 09:01:49;;;;;;;;;;;28.10;45.30;;;;;;5093783;28;1849;-38
2022/06/11 09:04:25;;;;;;;;;;;28.10;45.40;;;;;;5095288;28;1987;-37
2022/06/11 09:06:58;;;;;;;;;;;28.10;45.30;;;;;;5094061;28;888;-38
2022/06/11 09:09:31;;;;;;;;;;;28.10;45.40;;;;;;5095543;28;1048;-37
2022/06/11 09:12:03;;;;;;;;;;;28.10;45.40;;;;;;5094707;28;940;-38
2022/06/11 09:14:46;;;;;;;;;;;28.10;45.50;;;;;;5094762;28;940;-37
2022/06/11 09:17:24;;;;;;;;;;;28.10;45.60;;;;;;5094802;28;1068;-37
2022/06/11 09:20:04;;;;;;;;;;;28.10;45.40;;;;;;5094610;28;1061;-37
2022/06/11 09:22:37;;;;;;;;;;;28.10;45.40;;;;;;5094685;28;924;-38
2022/06/11 09:25:10;;;;;;;;;;;28.10;45.50;;;;;;5093386;28;1910;-38
2022/06/11 09:27:40;;;;;;;;;;;28.10;45.50;;;;;;5094231;28;952;-37
2022/06/11 09:30:08;;;;;;;;;;;28.10;45.40;;;;;;5094987;28;865;-37
2022/06/11 09:32:40;;;;;;;;;;;28.10;45.40;;;;;;5094447;28;873;-38
2022/06/11 09:35:10;;;;;;;;;;;28.10;45.40;;;;;;5094362;28;1004;-38
2022/06/11 09:37:41;;;;;;;;;;;28.10;45.30;;;;;;5094843;28;1169;-37
2022/06/11 09:40:09;;;;;;;;;;;28.10;45.30;;;;;;5095032;28;1046;-38
2022/06/11 09:42:42;;;;;;;;;;;28.10;45.30;;;;;;5095123;28;1038;-38
2022/06/11 09:45:13;;;;;;;;;;;28.10;45.40;;;;;;5095412;28;1902;-40
2022/06/11 09:47:48;;;;;;;;;;;28.20;45.50;;;;;;5094505;28;1027;-37
2022/06/11 09:50:21;;;;;;;;;;;28.10;45.30;;;;;;5094370;28;1032;-37
2022/06/11 09:52:51;;;;;;;;;;;28.10;45.30;;;;;;5094003;28;967;-39
2022/06/11 09:55:27;;;;;;;;;;;28.20;45.50;;;;;;5094180;28;1004;-38
2022/06/11 09:58:01;;;;;;;;;;;28.10;45.40;;;;;;5094340;28;944;-37
2022/06/11 10:00:30;;;;;;;;;;;28.10;45.30;;;;;;5093654;28;1026;-37
2022/06/11 10:03:11;;;;;;;;;;;28.10;45.30;;;;;;5094504;28;1055;-37
2022/06/11 10:05:44;;;;;;;;;;;28.20;45.40;;;;;;5093470;28;994;-38
2022/06/11 10:08:14;;;;;;;;;;;28.20;45.40;;;;;;5093548;28;956;-38
2022/06/11 10:10:42;;;;;;;;;;;28.10;45.30;;;;;;5093526;28;941;-39
2022/06/11 10:13:14;;;;;;;;;;;28.10;45.30;;;;;;5094721;28;1000;-37
2022/06/11 10:15:46;;;;;;;;;;;28.20;45.40;;;;;;5093644;28;1067;-37
2022/06/11 10:18:17;;;;;;;;;;;28.20;45.30;;;;;;5093040;28;933;-39
2022/06/11 10:20:47;;;;;;;;;;;28.20;45.40;;;;;;5093621;28;1027;-37
2022/06/11 10:23:17;;;;;;;;;;;28.20;45.50;;;;;;5093201;28;949;-39
2022/06/11 10:25:47;;;;;;;;;;;28.20;45.30;;;;;;5091577;28;965;-37
2022/06/11 10:28:18;;;;;;;;;;;28.20;45.40;;;;;;5092980;28;939;-38
2022/06/11 10:30:47;;;;;;;;;;;28.20;45.30;;;;;;5093967;28;943;-36
2022/06/11 10:33:19;;;;;;;;;;;28.20;45.40;;;;;;5092655;28;976;-36
2022/06/11 10:35:49;;;;;;;;;;;28.20;45.40;;;;;;5093690;28;1023;-37
2022/06/11 10:38:22;;;;;;;;;;;28.20;45.40;;;;;;5093375;28;904;-37
2022/06/11 10:40:50;;;;;;;;;;;28.20;45.40;;;;;;5092948;28;1015;-36
2022/06/11 10:43:20;;;;;;;;;;;28.20;45.30;;;;;;5093071;28;1042;-36
2022/06/11 10:45:47;;;;;;;;;;;28.20;45.50;;;;;;5093355;28;1984;-37
2022/06/11 10:48:15;;;;;;;;;;;28.20;45.40;;;;;;5093545;28;1011;-37
2022/06/11 10:50:44;;;;;;;;;;;28.20;45.50;;;;;;5094521;28;978;-37
2022/06/11 10:53:13;;;;;;;;;;;28.20;45.50;;;;;;5093702;28;932;-39
2022/06/11 10:55:42;;;;;;;;;;;28.20;45.40;;;;;;5093533;28;2177;-37
2022/06/11 10:58:16;;;;;;;;;;;28.20;45.30;;;;;;5093375;28;896;-37
2022/06/11 11:00:46;;;;;;;;;;;28.30;45.40;;;;;;5094222;28;936;-37
2022/06/11 11:03:15;;;;;;;;;;;28.20;46.40;;;;;;5092979;28;889;-36
2022/06/11 11:05:50;;;;;;;;;;;28.20;45.30;;;;;;5094226;28;1905;-37
2022/06/11 11:08:17;;;;;;;;;;;28.20;45.40;;;;;;5093643;28;1035;-37
2022/06/11 11:10:45;;;;;;;;;;;28.30;46.40;;;;;;5093688;28;997;-37
2022/06/11 11:13:18;;;;;;;;;;;28.30;45.40;;;;;;5092226;28;980;-37
2022/06/11 11:15:47;;;;;;;;;;;28.20;45.40;;;;;;5092229;28;1045;-38
2022/06/11 11:18:18;;;;;;;;;;;28.30;45.40;;;;;;5092140;28;1030;-38
2022/06/11 11:20:46;;;;;;;;;;;28.30;45.40;;;;;;5092854;28;1027;-37
2022/06/11 11:23:16;;;;;;;;;;;28.30;45.40;;;;;;5091043;28;984;-37
2022/06/11 11:25:46;;;;;;;;;;;28.30;45.40;;;;;;5091520;28;1913;-37
2022/06/11 11:28:18;;;;;;;;;;;28.20;45.30;;;;;;5093395;28;1297;-37
2022/06/11 11:30:45;;;;;;;;;;;28.30;45.40;;;;;;5096021;28;1047;-36
2022/06/11 11:33:13;;;;;;;;;;;28.30;45.40;;;;;;5097220;28;881;-37
2022/06/11 11:35:41;;;;;;;;;;;28.30;45.30;;;;;;5097251;28;980;-37
2022/06/11 11:38:14;;;;;;;;;;;28.30;45.40;;;;;;5096735;28;859;-37
2022/06/11 11:40:52;;;;;;;;;;;28.30;45.40;;;;;;5096613;28;1008;-39
2022/06/11 11:43:19;;;;;;;;;;;28.30;45.30;;;;;;5096662;28;854;-37
2022/06/11 11:45:46;;;;;;;;;;;28.30;45.30;;;;;;5096789;28;1902;-36
2022/06/11 11:48:15;;;;;;;;;;;28.30;45.40;;;;;;5096010;28;1123;-37
2022/06/11 11:50:42;;;;;;;;;;;28.30;45.40;;;;;;5095851;28;944;-37
2022/06/11 11:53:15;;;;;;;;;;;28.30;45.40;;;;;;5096226;28;999;-38
2022/06/11 11:55:44;;;;;;;;;;;28.30;45.40;;;;;;5095884;28;956;-37
2022/06/11 11:58:16;;;;;;;;;;;28.30;45.40;;;;;;5096253;28;944;-37
2022/06/11 12:00:50;;;;;;;;;;;28.30;45.40;;;;;;5096057;28;2014;-37
2022/06/11 12:03:21;;;;;;;;;;;28.30;45.40;;;;;;5096785;28;1055;-36
2022/06/11 12:05:49;;;;;;;;;;;28.30;45.40;;;;;;5095117;28;1914;-37
2022/06/11 12:08:19;;;;;;;;;;;28.30;45.50;;;;;;5096587;28;944;-37
2022/06/11 12:10:47;;;;;;;;;;;28.30;45.40;;;;;;5095616;28;1148;-36
2022/06/11 12:13:23;;;;;;;;;;;28.30;45.50;;;;;;5095750;28;959;-36
2022/06/11 12:15:52;;;;;;;;;;;28.30;45.50;;;;;;5096022;28;1126;-37
2022/06/11 12:18:21;;;;;;;;;;;28.30;45.40;;;;;;5095945;28;956;-39
2022/06/11 12:20:50;;;;;;;;;;;28.30;45.40;;;;;;5095796;28;944;-36
2022/06/11 12:23:20;;;;;;;;;;;28.40;45.50;;;;;;5096001;28;1007;-37
2022/06/11 12:25:50;;;;;;;;;;;28.40;45.40;;;;;;5095636;28;1984;-37
2022/06/11 12:28:19;;;;;;;;;;;28.40;45.40;;;;;;5096159;28;1023;-37
2022/06/11 12:30:48;;;;;;;;;;;28.30;45.40;;;;;;5096092;28;981;-36
2022/06/11 12:33:15;;;;;;;;;;;28.40;45.40;;;;;;5096963;28;1010;-36
2022/06/11 12:35:46;;;;;;;;;;;28.40;45.40;;;;;;5096187;28;1042;-37
2022/06/11 12:38:16;;;;;;;;;;;28.40;45.40;;;;;;5095389;28;1101;-37
2022/06/11 12:40:46;;;;;;;;;;;28.40;45.40;;;;;;5094632;28;948;-38
2022/06/11 12:43:23;;;;;;;;;;;28.40;45.40;;;;;;5096588;28;1019;-37
2022/06/11 12:45:57;;;;;;;;;;;28.40;45.50;;;;;;5095668;28;1895;-37
2022/06/11 12:48:31;;;;;;;;;;;28.40;45.40;;;;;;5095425;28;984;-37
2022/06/11 12:51:03;;;;;;;;;;;28.40;45.30;;;;;;5094950;28;1050;-37
2022/06/11 12:53:42;;;;;;;;;;;28.50;45.30;;;;;;5095190;28;1050;-39
2022/06/11 12:56:16;;;;;;;;;;;28.50;45.30;;;;;;5096065;28;971;-36
2022/06/11 12:58:50;;;;;;;;;;;28.40;45.30;;;;;;5095683;28;1008;-39
2022/06/11 13:01:23;;;;;;;;;;;28.50;45.30;;;;;;5093411;28;975;-37
2022/06/11 13:04:03;;;;;;;;;;;28.40;45.30;;;;;;5094969;28;885;-37
2022/06/11 13:06:44;;;;;;;;;;;28.50;45.30;;;;;;5095716;28;1965;-41
2022/06/11 13:09:18;;;;;;;;;;;28.50;45.30;;;;;;5094692;28;882;-37
2022/06/11 13:11:50;;;;;;;;;;;28.50;45.30;;;;;;5094774;28;1023;-37
2022/06/11 13:14:30;;;;;;;;;;;28.50;45.30;;;;;;5094355;28;912;-37
2022/06/11 13:17:03;;;;;;;;;;;28.50;45.40;;;;;;5094517;28;1123;-39
2022/06/11 13:19:34;;;;;;;;;;;28.50;45.40;;;;;;5095153;28;1007;-37
2022/06/11 13:22:05;;;;;;;;;;;28.50;45.40;;;;;;5095270;28;1009;-38
2022/06/11 13:24:37;;;;;;;;;;;28.50;45.40;;;;;;5095090;28;1980;-39
2022/06/11 13:27:09;;;;;;;;;;;28.50;45.30;;;;;;5094947;28;1144;-38
2022/06/11 13:29:44;;;;;;;;;;;28.50;45.30;;;;;;5095118;28;1034;-36
2022/06/11 13:32:19;;;;;;;;;;;28.50;45.30;;;;;;5095184;28;944;-37
2022/06/11 13:34:50;;;;;;;;;;;28.50;45.30;;;;;;5094596;28;1012;-38
2022/06/11 13:37:31;;;;;;;;;;;28.50;45.30;;;;;;5094443;28;982;-38
2022/06/11 13:40:05;;;;;;;;;;;28.50;45.30;;;;;;5093320;28;948;-37
2022/06/11 13:42:34;;;;;;;;;;;28.60;45.10;;;;;;5093598;28;948;-37
2022/06/11 13:45:25;;;;;;;;;;;28.60;45.10;;;;;;5092911;28;1894;-37
2022/06/11 13:47:58;;;;;;;;;;;28.60;45.10;;;;;;5080809;28;1489;-37
2022/06/11 13:50:31;;;;;;;;;;;28.70;45.10;;;;;;5093910;28;1013;-38
2022/06/11 13:55:48;;;;;;;;;;;28.70;45.00;;;;;;5090177;28;876;-37
2022/06/11 13:58:34;;;;;;;;;;;28.70;45.00;;;;;;5092318;28;1030;-37
2022/06/11 14:01:15;;;;;;;;;;;28.70;45.10;;;;;;5093319;28;1020;-39
2022/06/11 14:03:53;;;;;;;;;;;28.80;45.00;;;;;;5093110;28;1003;-37
2022/06/11 14:06:20;;;;;;;;;;;28.80;44.90;;;;;;5093314;28;1993;-38
2022/06/11 14:08:50;;;;;;;;;;;28.80;44.90;;;;;;5093854;28;973;-37
2022/06/11 14:11:35;;;;;;;;;;;28.90;44.80;;;;;;5093065;28;1023;-37
2022/06/11 14:14:02;;;;;;;;;;;28.80;44.80;;;;;;5092375;28;1568;-39
2022/06/11 14:16:47;;;;;;;;;;;28.80;44.80;;;;;;5093797;28;1022;-37
2022/06/11 14:19:32;;;;;;;;;;;28.80;44.80;;;;;;5092908;28;1022;-38
2022/06/11 14:22:00;;;;;;;;;;;28.80;44.80;;;;;;5093277;28;1850;-39
2022/06/11 14:24:45;;;;;;;;;;;28.90;44.80;;;;;;5092962;28;645;-37
2022/06/11 14:27:26;;;;;;;;;;;28.90;44.80;;;;;;5092226;28;1632;-36
2022/06/11 14:30:01;;;;;;;;;;;28.90;44.80;;;;;;5092741;28;916;-37
2022/06/11 14:32:30;;;;;;;;;;;28.90;44.80;;;;;;5092244;28;999;-37
2022/06/11 14:35:01;;;;;;;;;;;28.90;44.80;;;;;;5092362;28;1000;-37
2022/06/11 14:37:31;;;;;;;;;;;29.00;44.90;;;;;;5093225;28;876;-36
2022/06/11 14:40:04;;;;;;;;;;;29.10;45.40;;;;;;5093306;28;872;-36
2022/06/11 14:42:46;;;;;;;;;;;29.10;44.60;;;;;;5091511;28;940;-36
2022/06/11 14:45:31;;;;;;;;;;;29.10;44.50;;;;;;5091836;28;1905;-37
2022/06/11 14:47:59;;;;;;;;;;;29.00;44.60;;;;;;5092291;28;984;-37
2022/06/11 14:50:39;;;;;;;;;;;29.10;43.60;;;;;;5092268;28;948;-37
2022/06/11 14:53:11;;;;;;;;;;;29.10;43.40;;;;;;5092151;28;1008;-36
2022/06/11 14:55:39;;;;;;;;;;;29.10;42.40;;;;;;5089444;28;1157;-37
2022/06/11 14:58:35;;;;;;;;;;;29.00;42.10;;;;;;5093114;28;1004;-36